createdAt,value
2018-12-24T00:00:06.563Z,6.60
2018-12-24T00:02:59.011Z,6.60
2018-12-24T00:05:51.191Z,6.60
2018-12-24T00:08:43.373Z,6.60
2018-12-24T00:11:35.813Z,6.60
2018-12-24T00:14:28.071Z,6.50
2018-12-24T00:17:20.264Z,6.50
2018-12-24T00:20:12.455Z,6.40
2018-12-24T00:23:04.653Z,6.40
2018-12-24T00:25:56.836Z,6.40
2018-12-24T00:28:49.043Z,6.40
2018-12-24T00:31:41.243Z,6.30
2018-12-24T00:34:33.419Z,6.40
2018-12-24T00:37:25.616Z,6.40
2018-12-24T00:40:18.320Z,6.30
2018-12-24T00:43:10.525Z,6.40
2018-12-24T00:46:02.700Z,6.40
2018-12-24T00:48:54.886Z,6.40
2018-12-24T00:51:47.068Z,6.30
2018-12-24T00:54:39.260Z,6.20
2018-12-24T00:57:31.452Z,6.20
2018-12-24T01:00:23.652Z,6.10
2018-12-24T01:03:15.860Z,6.00
2018-12-24T01:06:08.033Z,6.00
2018-12-24T01:09:00.235Z,6.00
2018-12-24T01:11:52.404Z,6.00
2018-12-24T01:14:44.610Z,6.00
2018-12-24T01:17:36.791Z,6.00
2018-12-24T01:20:28.980Z,6.10
2018-12-24T01:23:21.439Z,6.10
2018-12-24T01:26:13.625Z,6.20
2018-12-24T01:29:06.145Z,6.20
2018-12-24T01:31:58.688Z,6.10
2018-12-24T01:34:51.144Z,6.10
2018-12-24T01:37:43.320Z,6.10
2018-12-24T01:40:36.011Z,6.10
2018-12-24T01:43:28.201Z,6.10
2018-12-24T01:46:20.410Z,6.10
2018-12-24T01:49:12.600Z,6.00
2018-12-24T01:52:04.805Z,6.00
2018-12-24T01:54:56.986Z,6.10
2018-12-24T01:57:49.177Z,6.10
2018-12-24T02:00:41.380Z,6.20
2018-12-24T02:03:33.560Z,6.20
2018-12-24T02:06:32.688Z,6.20
2018-12-24T02:09:24.863Z,6.10
2018-12-24T02:12:17.151Z,6.10
2018-12-24T02:15:09.340Z,6.20
2018-12-24T02:18:01.532Z,6.20
2018-12-24T02:23:32.716Z,6.20
2018-12-24T02:26:17.837Z,6.10
2018-12-24T02:29:04.020Z,6.10
2018-12-24T02:31:48.692Z,6.10
2018-12-24T02:34:33.411Z,6.10
2018-12-24T02:37:18.345Z,6.10
2018-12-24T02:40:02.893Z,6.20
2018-12-24T02:42:52.211Z,6.20
2018-12-24T02:45:34.199Z,6.20
2018-12-24T02:48:19.097Z,6.20
2018-12-24T02:51:03.820Z,6.30
2018-12-24T02:53:48.713Z,6.30
2018-12-24T02:59:20.993Z,6.30
2018-12-24T03:02:05.824Z,6.30
2018-12-24T03:04:50.641Z,6.30
2018-12-24T03:07:35.485Z,6.30
2018-12-24T03:10:20.329Z,6.30
2018-12-24T03:13:03.581Z,6.30
2018-12-24T03:15:55.765Z,6.40
2018-12-24T03:18:48.201Z,6.40
2018-12-24T03:21:33.060Z,6.40
2018-12-24T03:24:18.016Z,6.40
2018-12-24T03:27:03.088Z,6.40
2018-12-24T03:29:47.990Z,6.40
2018-12-24T03:32:32.708Z,6.40
2018-12-24T03:35:17.304Z,6.40
2018-12-24T03:40:49.554Z,6.40
2018-12-24T03:46:22.176Z,6.40
2018-12-24T03:49:07.083Z,6.40
2018-12-24T03:51:51.935Z,6.40
2018-12-24T03:54:36.975Z,6.40
2018-12-24T03:57:21.940Z,6.40
2018-12-24T04:00:07.031Z,6.40
2018-12-24T04:02:52.041Z,6.40
2018-12-24T04:05:36.776Z,6.50
2018-12-24T04:08:20.082Z,6.50
2018-12-24T04:11:12.260Z,6.50
2018-12-24T04:14:04.702Z,6.40
2018-12-24T04:16:56.892Z,6.40
2018-12-24T04:19:49.077Z,6.40
2018-12-24T04:22:34.215Z,6.40
2018-12-24T04:25:19.097Z,6.40
2018-12-24T04:28:03.728Z,6.40
2018-12-24T04:30:48.745Z,6.40
2018-12-24T04:33:33.920Z,6.40
2018-12-24T04:36:18.637Z,6.50
2018-12-24T04:39:03.357Z,6.40
2018-12-24T04:41:48.080Z,6.40
2018-12-24T04:44:32.681Z,6.40
2018-12-24T04:47:17.489Z,6.50
2018-12-24T04:50:02.257Z,6.40
2018-12-24T04:52:45.497Z,6.40
2018-12-24T04:55:37.688Z,6.50
2018-12-24T04:58:30.062Z,6.50
2018-12-24T05:01:22.328Z,6.50
2018-12-24T05:04:14.776Z,6.50
2018-12-24T05:07:06.956Z,6.50
2018-12-24T05:09:59.160Z,6.50
2018-12-24T05:12:51.351Z,6.50
2018-12-24T05:15:43.556Z,6.50
2018-12-24T05:18:35.739Z,6.50
2018-12-24T05:21:20.517Z,6.40
2018-12-24T05:24:05.415Z,6.50
2018-12-24T05:26:51.239Z,6.40
2018-12-24T05:29:36.253Z,6.40
2018-12-24T05:32:20.960Z,6.50
2018-12-24T05:35:06.114Z,6.40
2018-12-24T05:37:50.725Z,6.40
2018-12-24T05:40:35.526Z,6.40
2018-12-24T05:43:20.130Z,6.40
2018-12-24T05:46:04.688Z,6.50
2018-12-24T05:48:49.659Z,6.40
2018-12-24T05:51:34.578Z,6.40
2018-12-24T05:54:19.186Z,6.40
2018-12-24T05:57:03.953Z,6.40
2018-12-24T05:59:48.593Z,6.40
2018-12-24T06:02:33.279Z,6.40
2018-12-24T06:05:17.953Z,6.50
2018-12-24T06:08:02.979Z,6.50
2018-12-24T06:10:46.174Z,6.50
2018-12-24T06:13:38.371Z,6.50
2018-12-24T06:16:30.552Z,6.50
2018-12-24T06:19:22.748Z,6.50
2018-12-24T06:22:07.812Z,6.50
2018-12-24T06:24:52.292Z,6.50
2018-12-24T06:27:37.933Z,6.50
2018-12-24T06:30:22.801Z,6.50
2018-12-24T06:33:07.466Z,6.50
2018-12-24T06:35:52.049Z,6.50
2018-12-24T06:38:36.883Z,6.40
2018-12-24T06:41:22.175Z,6.40
2018-12-24T06:44:07.168Z,6.40
2018-12-24T06:46:51.987Z,6.40
2018-12-24T06:49:35.303Z,6.50
2018-12-24T06:52:27.475Z,6.50
2018-12-24T06:55:19.693Z,6.50
2018-12-24T06:58:11.869Z,6.50
2018-12-24T07:01:04.081Z,6.50
2018-12-24T07:03:56.263Z,6.50
2018-12-24T07:06:48.457Z,6.50
2018-12-24T07:09:40.661Z,6.40
2018-12-24T07:12:32.824Z,6.40
2018-12-24T07:15:25.279Z,6.40
2018-12-24T07:18:17.487Z,6.30
2018-12-24T07:21:03.544Z,6.40
2018-12-24T07:23:48.894Z,6.40
2018-12-24T07:26:33.676Z,6.40
2018-12-24T07:29:18.720Z,6.40
2018-12-24T07:32:03.681Z,6.40
2018-12-24T07:34:48.940Z,6.40
2018-12-24T07:37:33.513Z,6.40
2018-12-24T07:43:05.482Z,6.40
2018-12-24T07:45:50.219Z,6.40
2018-12-24T07:48:34.776Z,6.40
2018-12-24T07:51:17.980Z,6.40
2018-12-24T07:54:10.166Z,6.40
2018-12-24T07:57:02.360Z,6.40
2018-12-24T07:59:54.556Z,6.40
2018-12-24T08:02:47.006Z,6.40
2018-12-24T08:05:39.194Z,6.50
2018-12-24T08:08:31.387Z,6.50
2018-12-24T08:11:23.556Z,6.50
2018-12-24T08:14:15.753Z,6.50
2018-12-24T08:17:08.192Z,6.50
2018-12-24T08:20:00.380Z,6.50
2018-12-24T08:22:45.347Z,6.50
2018-12-24T08:25:30.445Z,6.50
2018-12-24T08:28:15.332Z,6.50
2018-12-24T08:30:59.908Z,6.50
2018-12-24T08:33:44.775Z,6.50
2018-12-24T08:36:29.623Z,6.50
2018-12-24T08:39:14.477Z,6.50
2018-12-24T08:42:00.164Z,6.50
2018-12-24T08:44:44.910Z,6.50
2018-12-24T08:47:29.977Z,6.50
2018-12-24T08:50:14.600Z,6.50
2018-12-24T08:52:59.626Z,6.50
2018-12-24T08:55:44.389Z,6.50
2018-12-24T08:58:28.876Z,6.50
2018-12-24T09:01:13.461Z,6.50
2018-12-24T09:03:58.497Z,6.60
2018-12-24T09:06:43.365Z,6.60
2018-12-24T09:09:28.122Z,6.50
2018-12-24T09:12:12.865Z,6.50
2018-12-24T09:17:45.270Z,6.50
2018-12-24T09:20:30.380Z,6.50
2018-12-24T09:23:14.964Z,6.50
2018-12-24T09:26:00.089Z,6.50
2018-12-24T09:28:44.675Z,6.50
2018-12-24T09:31:29.677Z,6.60
2018-12-24T09:34:15.249Z,6.50
2018-12-24T09:37:00.232Z,6.60
2018-12-24T09:39:43.490Z,6.50
2018-12-24T09:42:35.696Z,6.60
2018-12-24T09:45:27.899Z,6.60
2018-12-24T09:48:20.082Z,6.60
2018-12-24T09:51:12.528Z,6.60
2018-12-24T09:54:04.719Z,6.50
2018-12-24T09:56:56.905Z,6.60
2018-12-24T09:59:49.083Z,6.60
2018-12-24T10:02:42.724Z,6.50
2018-12-24T10:05:19.215Z,6.50
2018-12-24T10:08:13.463Z,6.50
2018-12-24T10:11:05.652Z,6.60
2018-12-24T10:13:57.867Z,6.60
2018-12-24T10:16:50.036Z,6.40
2018-12-24T10:19:42.229Z,6.60
2018-12-24T10:22:27.609Z,6.50
2018-12-24T10:25:12.248Z,6.50
2018-12-24T10:27:57.088Z,6.60
2018-12-24T10:30:42.270Z,6.50
2018-12-24T10:33:27.120Z,6.50
2018-12-24T10:36:11.894Z,6.40
2018-12-24T10:41:44.140Z,6.40
2018-12-24T10:44:28.696Z,6.40
2018-12-24T10:47:13.272Z,6.30
2018-12-24T10:49:57.776Z,6.20
2018-12-24T10:52:42.267Z,6.10
2018-12-24T10:55:27.363Z,6.00
2018-12-24T10:58:12.816Z,6.00
2018-12-24T11:00:57.840Z,6.10
2018-12-24T11:03:42.736Z,6.10
2018-12-24T11:06:27.306Z,6.10
2018-12-24T11:11:59.808Z,6.20
2018-12-24T11:14:44.888Z,6.20
2018-12-24T11:17:29.873Z,6.30
2018-12-24T11:20:14.611Z,6.30
2018-12-24T11:22:59.390Z,6.30
2018-12-24T11:25:44.436Z,6.30
2018-12-24T11:28:29.312Z,6.30
2018-12-24T11:31:14.476Z,6.30
2018-12-24T11:33:59.200Z,6.40
2018-12-24T11:36:44.376Z,6.30
2018-12-24T11:39:29.896Z,6.20
2018-12-24T11:42:14.657Z,6.20
2018-12-24T11:44:58.004Z,6.20
2018-12-24T11:47:50.197Z,6.20
2018-12-24T11:50:42.384Z,6.30
2018-12-24T11:53:34.587Z,6.30
2018-12-24T11:56:26.789Z,6.30
2018-12-24T11:59:18.979Z,6.30
2018-12-24T12:02:11.164Z,6.30
2018-12-24T12:05:03.399Z,6.40
2018-12-24T12:07:55.575Z,6.40
2018-12-24T12:10:47.775Z,6.40
2018-12-24T12:13:39.956Z,6.40
2018-12-24T12:16:32.152Z,6.50
2018-12-24T12:19:24.360Z,6.50
2018-12-24T12:22:07.669Z,6.50
2018-12-24T12:24:59.909Z,6.50
2018-12-24T12:27:52.081Z,6.50
2018-12-24T12:30:44.271Z,6.60
2018-12-24T12:33:36.466Z,6.60
2018-12-24T12:36:28.664Z,6.60
2018-12-24T12:39:20.845Z,6.60
2018-12-24T12:42:13.027Z,6.60
2018-12-24T12:45:05.258Z,6.60
2018-12-24T12:47:57.566Z,6.60
2018-12-24T12:50:49.831Z,6.50
2018-12-24T12:53:42.024Z,6.50
2018-12-24T12:56:34.256Z,6.60
2018-12-24T12:59:26.427Z,6.70
2018-12-24T13:02:19.032Z,6.70
2018-12-24T13:04:53.671Z,6.70
2018-12-24T13:07:45.863Z,6.80
2018-12-24T13:10:38.041Z,6.90
2018-12-24T13:13:36.690Z,6.80
2018-12-24T13:16:24.183Z,6.70
2018-12-24T13:19:16.352Z,6.70
2018-12-24T13:22:04.450Z,6.60
2018-12-24T13:24:46.016Z,6.70
2018-12-24T13:27:38.209Z,6.60
2018-12-24T13:30:30.383Z,6.70
2018-12-24T13:33:22.580Z,6.80
2018-12-24T13:36:14.786Z,6.80
2018-12-24T13:39:07.008Z,6.80
2018-12-24T13:41:59.234Z,6.80
2018-12-24T13:44:51.412Z,6.80
2018-12-24T13:47:43.627Z,6.80
2018-12-24T13:50:35.808Z,6.70
2018-12-24T13:53:27.999Z,6.70
2018-12-24T13:56:20.168Z,6.60
2018-12-24T13:59:12.368Z,6.50
2018-12-24T14:02:04.604Z,6.50
2018-12-24T14:04:56.780Z,6.50
2018-12-24T14:07:48.967Z,6.50
2018-12-24T14:10:41.140Z,6.40
2018-12-24T14:13:33.332Z,6.40
2018-12-24T14:16:25.515Z,6.30
2018-12-24T14:19:17.698Z,6.40
2018-12-24T14:22:03.169Z,6.40
2018-12-24T14:24:48.045Z,6.40
2018-12-24T14:27:33.099Z,6.40
2018-12-24T14:30:18.152Z,6.40
2018-12-24T14:33:02.850Z,6.40
2018-12-24T14:35:48.005Z,6.30
2018-12-24T14:38:33.784Z,6.20
2018-12-24T14:41:18.404Z,6.20
2018-12-24T14:44:04.000Z,6.10
2018-12-24T14:46:48.565Z,6.00
2018-12-24T14:49:33.443Z,6.00
2018-12-24T14:52:18.291Z,5.90
2018-12-24T14:55:03.483Z,5.90
2018-12-24T15:00:35.553Z,5.80
2018-12-24T15:03:20.233Z,5.80
2018-12-24T15:06:04.789Z,5.70
2018-12-24T15:08:49.649Z,5.70
2018-12-24T15:11:35.363Z,5.60
2018-12-24T15:14:20.072Z,5.60
2018-12-24T15:17:04.596Z,5.50
2018-12-24T15:19:49.391Z,5.50
2018-12-24T15:22:34.204Z,5.40
2018-12-24T15:25:18.994Z,5.40
2018-12-24T15:28:04.296Z,5.30
2018-12-24T15:30:49.375Z,5.20
2018-12-24T15:33:34.166Z,5.20
2018-12-24T15:36:18.889Z,5.10
2018-12-24T15:39:04.027Z,5.10
2018-12-24T15:41:47.324Z,5.00
2018-12-24T15:44:39.509Z,5.00
2018-12-24T15:47:31.724Z,4.90
2018-12-24T15:50:23.896Z,4.80
2018-12-24T15:53:16.098Z,4.80
2018-12-24T15:56:08.327Z,4.80
2018-12-24T15:59:00.488Z,4.80
2018-12-24T16:01:52.685Z,4.70
2018-12-24T16:04:44.863Z,4.70
2018-12-24T16:07:37.056Z,4.60
2018-12-24T16:10:29.238Z,4.60
2018-12-24T16:13:21.700Z,4.50
2018-12-24T16:16:13.885Z,4.50
2018-12-24T16:19:06.065Z,4.50
2018-12-24T16:21:50.913Z,4.40
2018-12-24T16:27:22.298Z,4.30
2018-12-24T16:30:07.175Z,4.20
2018-12-24T16:32:51.899Z,4.30
2018-12-24T16:35:36.670Z,4.20
2018-12-24T16:38:22.026Z,4.20
2018-12-24T16:41:06.907Z,4.10
2018-12-24T16:43:51.464Z,4.20
2018-12-24T16:46:36.887Z,4.10
2018-12-24T16:49:21.809Z,4.10
2018-12-24T16:52:06.686Z,4.20
2018-12-24T16:54:51.659Z,4.10
2018-12-24T16:57:36.359Z,4.10
2018-12-24T17:00:21.159Z,4.00
2018-12-24T17:03:05.796Z,4.00
2018-12-24T17:05:52.028Z,4.00
2018-12-24T17:08:36.668Z,4.00
2018-12-24T17:11:22.113Z,3.90
2018-12-24T17:14:07.561Z,3.80
2018-12-24T17:16:52.428Z,3.70
2018-12-24T17:19:37.476Z,3.70
2018-12-24T17:22:22.895Z,3.70
2018-12-24T17:25:08.277Z,3.70
2018-12-24T17:27:52.806Z,3.60
2018-12-24T17:30:37.484Z,3.60
2018-12-24T17:33:22.432Z,3.50
2018-12-24T17:36:06.952Z,3.50
2018-12-24T17:38:51.809Z,3.40
2018-12-24T17:41:36.808Z,3.40
2018-12-24T17:44:21.368Z,3.30
2018-12-24T17:47:06.510Z,3.30
2018-12-24T17:49:51.952Z,3.20
2018-12-24T17:52:36.756Z,3.20
2018-12-24T17:55:21.369Z,3.20
2018-12-24T17:58:05.943Z,3.20
2018-12-24T18:00:50.744Z,3.20
2018-12-24T18:03:35.268Z,3.20
2018-12-24T18:06:19.822Z,3.10
2018-12-24T18:09:04.664Z,3.10
2018-12-24T18:11:49.455Z,3.10
2018-12-24T18:17:24.853Z,3.00
2018-12-24T18:20:08.500Z,3.00
2018-12-24T18:22:53.625Z,3.00
2018-12-24T18:25:38.147Z,3.00
2018-12-24T18:28:22.904Z,3.00
2018-12-24T18:31:07.903Z,2.90
2018-12-24T18:33:52.624Z,2.90
2018-12-24T18:36:37.645Z,2.90
2018-12-24T18:39:22.504Z,2.90
2018-12-24T18:42:08.011Z,2.90
2018-12-24T18:44:52.694Z,2.80
2018-12-24T18:47:37.329Z,2.80
2018-12-24T18:50:22.145Z,2.80
2018-12-24T18:53:07.143Z,2.80
2018-12-24T18:55:51.812Z,2.70
2018-12-24T18:58:36.500Z,2.70
2018-12-24T19:01:21.485Z,2.70
2018-12-24T19:04:06.836Z,2.70
2018-12-24T19:06:51.572Z,2.60
2018-12-24T19:09:37.460Z,2.60
2018-12-24T19:12:22.347Z,2.60
2018-12-24T19:15:07.200Z,2.70
2018-12-24T19:17:52.068Z,2.60
2018-12-24T19:20:35.355Z,2.50
2018-12-24T19:23:20.056Z,2.50
2018-12-24T19:26:04.506Z,2.50
2018-12-24T19:28:49.300Z,2.50
2018-12-24T19:34:21.297Z,2.40
2018-12-24T19:37:06.218Z,2.40
2018-12-24T19:39:51.152Z,2.40
2018-12-24T19:42:36.095Z,2.30
2018-12-24T19:45:20.807Z,2.30
2018-12-24T19:48:05.787Z,2.30
2018-12-24T19:50:49.016Z,2.30
2018-12-24T19:53:41.196Z,2.30
2018-12-24T19:56:33.396Z,2.30
2018-12-24T19:59:25.712Z,2.20
2018-12-24T20:02:17.907Z,2.20
2018-12-24T20:04:51.415Z,2.20
2018-12-24T20:07:43.612Z,2.20
2018-12-24T20:10:35.826Z,2.20
2018-12-24T20:13:28.002Z,2.30
2018-12-24T20:16:20.212Z,2.30
2018-12-24T20:19:12.405Z,2.30
2018-12-24T20:21:57.772Z,2.30
2018-12-24T20:24:42.619Z,2.30
2018-12-24T20:27:15.619Z,2.30
2018-12-24T20:30:07.808Z,2.30
2018-12-24T20:32:59.995Z,2.30
2018-12-24T20:35:52.284Z,2.30
2018-12-24T20:38:44.480Z,2.30
2018-12-24T20:41:36.664Z,2.30
2018-12-24T20:47:40.338Z,2.40
2018-12-24T20:50:32.521Z,2.40
2018-12-24T20:53:24.711Z,2.40
2018-12-24T20:56:16.880Z,2.30
2018-12-24T20:59:09.070Z,2.40
2018-12-24T21:02:01.355Z,2.40
2018-12-24T21:04:53.552Z,2.40
2018-12-24T21:07:45.739Z,2.50
2018-12-24T21:10:37.915Z,2.50
2018-12-24T21:13:30.099Z,2.60
2018-12-24T21:16:22.277Z,2.60
2018-12-24T21:19:14.468Z,2.70
2018-12-24T21:21:58.948Z,2.70
2018-12-24T21:24:44.420Z,2.80
2018-12-24T21:27:29.865Z,2.80
2018-12-24T21:30:13.106Z,2.80
2018-12-24T21:33:05.293Z,2.90
2018-12-24T21:35:57.480Z,2.90
2018-12-24T21:38:49.672Z,3.00
2018-12-24T21:41:41.901Z,3.00
2018-12-24T21:44:34.104Z,3.00
2018-12-24T21:47:26.284Z,3.10
2018-12-24T21:50:18.568Z,3.10
2018-12-24T21:53:10.747Z,3.20
2018-12-24T21:56:02.938Z,3.20
2018-12-24T21:58:55.114Z,3.20
2018-12-24T22:01:47.548Z,3.30
2018-12-24T22:04:39.736Z,3.30
2018-12-24T22:07:31.932Z,3.30
2018-12-24T22:10:24.141Z,3.30
2018-12-24T22:13:16.322Z,3.30
2018-12-24T22:16:08.520Z,3.30
2018-12-24T22:19:00.699Z,3.30
2018-12-24T22:21:45.564Z,3.30
2018-12-24T22:24:30.638Z,3.30
2018-12-24T22:27:15.507Z,3.20
2018-12-24T22:30:00.264Z,3.30
2018-12-24T22:32:45.004Z,3.30
2018-12-24T22:35:29.737Z,3.30
2018-12-24T22:38:13.231Z,3.30
2018-12-24T22:41:05.415Z,3.30
2018-12-24T22:43:57.608Z,3.30
2018-12-24T22:46:49.801Z,3.30
2018-12-24T22:49:42.284Z,3.30
2018-12-24T22:52:34.468Z,3.30
2018-12-24T22:55:26.663Z,3.30
2018-12-24T22:58:18.856Z,3.40
2018-12-24T23:01:11.047Z,3.40
2018-12-24T23:04:03.227Z,3.40
2018-12-24T23:06:55.415Z,3.40
2018-12-24T23:09:47.598Z,3.40
2018-12-24T23:12:39.784Z,3.40
2018-12-24T23:15:31.975Z,3.40
2018-12-24T23:18:24.175Z,3.50
2018-12-24T23:21:16.362Z,3.50
2018-12-24T23:24:01.604Z,3.50
2018-12-24T23:26:46.524Z,3.40
2018-12-24T23:29:31.491Z,3.60
2018-12-24T23:32:16.341Z,3.60
2018-12-24T23:35:01.722Z,3.60
2018-12-24T23:37:47.012Z,3.70
2018-12-24T23:40:32.110Z,3.70
2018-12-24T23:46:05.199Z,3.70
2018-12-24T23:48:57.499Z,3.80
2018-12-24T23:51:36.122Z,3.80
2018-12-24T23:54:20.895Z,3.80
2018-12-24T23:57:05.678Z,3.80
2018-12-24T23:59:50.667Z,3.80
